sensor_id;sensor_type;location;lat;lon;timestamp;pressure;altitude;pressure_sealevel;temperature;humidity
51299;BME280;37382;45.192;9.790;2022-12-29T00:02:23;102011.50;;;8.82;100.00
51299;BME280;37382;45.192;9.790;2022-12-29T00:04:50;102006.13;;;8.90;100.00
51299;BME280;37382;45.192;9.790;2022-12-29T00:07:18;102009.16;;;8.87;100.00
51299;BME280;37382;45.192;9.790;2022-12-29T00:09:46;102004.06;;;8.84;100.00
51299;BME280;37382;45.192;9.790;2022-12-29T00:12:13;101999.22;;;8.60;100.00
51299;BME280;37382;45.192;9.790;2022-12-29T00:14:41;102002.34;;;8.65;100.00
51299;BME280;37382;45.192;9.790;2022-12-29T00:17:27;102000.34;;;8.85;100.00
51299;BME280;37382;45.192;9.790;2022-12-29T00:19:54;101993.81;;;8.78;100.00
51299;BME280;37382;45.192;9.790;2022-12-29T00:22:40;102003.38;;;8.36;100.00
51299;BME280;37382;45.192;9.790;2022-12-29T00:25:26;102006.00;;;8.28;100.00
51299;BME280;37382;45.192;9.790;2022-12-29T00:28:13;102005.72;;;8.49;100.00
51299;BME280;37382;45.192;9.790;2022-12-29T00:31:00;102002.97;;;8.95;100.00
51299;BME280;37382;45.192;9.790;2022-12-29T00:33:46;102004.66;;;9.14;100.00
51299;BME280;37382;45.192;9.790;2022-12-29T00:36:39;101999.88;;;8.72;100.00
51299;BME280;37382;45.192;9.790;2022-12-29T00:39:11;101995.28;;;8.90;100.00
51299;BME280;37382;45.192;9.790;2022-12-29T00:42:05;101985.53;;;8.98;100.00
51299;BME280;37382;45.192;9.790;2022-12-29T00:49:40;101978.53;;;9.39;100.00
51299;BME280;37382;45.192;9.790;2022-12-29T00:52:10;101971.88;;;9.34;100.00
51299;BME280;37382;45.192;9.790;2022-12-29T00:54:39;101972.72;;;9.08;100.00
51299;BME280;37382;45.192;9.790;2022-12-29T00:57:09;101979.63;;;8.84;100.00
51299;BME280;37382;45.192;9.790;2022-12-29T00:59:38;101982.59;;;8.73;100.00
51299;BME280;37382;45.192;9.790;2022-12-29T01:02:06;101984.00;;;8.77;100.00
51299;BME280;37382;45.192;9.790;2022-12-29T01:04:35;101979.78;;;8.65;100.00
51299;BME280;37382;45.192;9.790;2022-12-29T01:07:03;101979.16;;;8.89;100.00
51299;BME280;37382;45.192;9.790;2022-12-29T01:09:31;101972.94;;;8.97;100.00
51299;BME280;37382;45.192;9.790;2022-12-29T01:12:18;101985.63;;;9.32;100.00
51299;BME280;37382;45.192;9.790;2022-12-29T01:15:11;101984.66;;;9.41;100.00
51299;BME280;37382;45.192;9.790;2022-12-29T01:17:39;101985.03;;;9.47;100.00
51299;BME280;37382;45.192;9.790;2022-12-29T01:20:07;101983.72;;;9.51;100.00
51299;BME280;37382;45.192;9.790;2022-12-29T01:22:35;101975.44;;;9.34;100.00
51299;BME280;37382;45.192;9.790;2022-12-29T01:25:04;101976.53;;;9.41;100.00
51299;BME280;37382;45.192;9.790;2022-12-29T01:27:31;101979.75;;;9.19;100.00
51299;BME280;37382;45.192;9.790;2022-12-29T01:29:59;101984.53;;;8.63;100.00
51299;BME280;37382;45.192;9.790;2022-12-29T01:32:26;101981.22;;;8.41;100.00
51299;BME280;37382;45.192;9.790;2022-12-29T01:34:53;101986.44;;;8.25;100.00
51299;BME280;37382;45.192;9.790;2022-12-29T01:37:21;101982.03;;;8.51;100.00
51299;BME280;37382;45.192;9.790;2022-12-29T01:39:49;101986.09;;;8.65;100.00
51299;BME280;37382;45.192;9.790;2022-12-29T01:42:18;101976.63;;;8.69;100.00
51299;BME280;37382;45.192;9.790;2022-12-29T01:47:21;101993.03;;;8.86;100.00
51299;BME280;37382;45.192;9.790;2022-12-29T01:49:53;101986.28;;;9.08;100.00
51299;BME280;37382;45.192;9.790;2022-12-29T01:52:22;101977.66;;;9.13;100.00
51299;BME280;37382;45.192;9.790;2022-12-29T01:54:53;101980.09;;;9.42;100.00
51299;BME280;37382;45.192;9.790;2022-12-29T01:57:27;101973.03;;;8.87;100.00
51299;BME280;37382;45.192;9.790;2022-12-29T02:00:03;101963.22;;;8.50;100.00
51299;BME280;37382;45.192;9.790;2022-12-29T02:02:44;101973.50;;;8.46;100.00
51299;BME280;37382;45.192;9.790;2022-12-29T02:05:33;101972.72;;;8.72;100.00
51299;BME280;37382;45.192;9.790;2022-12-29T02:08:03;101972.09;;;8.42;100.00
51299;BME280;37382;45.192;9.790;2022-12-29T02:10:35;101961.25;;;8.42;100.00
51299;BME280;37382;45.192;9.790;2022-12-29T02:13:03;101957.84;;;8.58;100.00
51299;BME280;37382;45.192;9.790;2022-12-29T02:16:17;101961.81;;;8.18;100.00
51299;BME280;37382;45.192;9.790;2022-12-29T02:32:31;101957.72;;;8.78;100.00
51299;BME280;37382;45.192;9.790;2022-12-29T02:41:09;101954.16;;;8.13;100.00
51299;BME280;37382;45.192;9.790;2022-12-29T02:44:02;101965.22;;;8.20;100.00
51299;BME280;37382;45.192;9.790;2022-12-29T02:46:37;101959.25;;;8.16;100.00
51299;BME280;37382;45.192;9.790;2022-12-29T02:49:15;101950.41;;;8.14;100.00
51299;BME280;37382;45.192;9.790;2022-12-29T02:52:07;101957.00;;;8.12;100.00
51299;BME280;37382;45.192;9.790;2022-12-29T02:54:38;101955.81;;;8.42;100.00
51299;BME280;37382;45.192;9.790;2022-12-29T02:57:15;101946.25;;;8.20;100.00
51299;BME280;37382;45.192;9.790;2022-12-29T03:00:01;101951.91;;;8.54;100.00
51299;BME280;37382;45.192;9.790;2022-12-29T03:02:56;101959.47;;;8.69;100.00
51299;BME280;37382;45.192;9.790;2022-12-29T03:11:14;101940.69;;;8.40;100.00
51299;BME280;37382;45.192;9.790;2022-12-29T03:17:08;101930.88;;;8.75;100.00
51299;BME280;37382;45.192;9.790;2022-12-29T03:19:44;101933.44;;;8.94;100.00
51299;BME280;37382;45.192;9.790;2022-12-29T03:22:21;101931.34;;;9.14;100.00
51299;BME280;37382;45.192;9.790;2022-12-29T03:25:18;101926.53;;;9.26;100.00
51299;BME280;37382;45.192;9.790;2022-12-29T03:28:01;101927.72;;;9.32;100.00
51299;BME280;37382;45.192;9.790;2022-12-29T03:30:36;101930.59;;;9.30;100.00
51299;BME280;37382;45.192;9.790;2022-12-29T03:33:08;101932.63;;;9.28;100.00
51299;BME280;37382;45.192;9.790;2022-12-29T03:35:41;101930.28;;;9.33;100.00
51299;BME280;37382;45.192;9.790;2022-12-29T03:38:16;101929.84;;;8.94;100.00
51299;BME280;37382;45.192;9.790;2022-12-29T03:40:56;101929.44;;;8.62;100.00
51299;BME280;37382;45.192;9.790;2022-12-29T03:43:26;101933.75;;;8.91;100.00
51299;BME280;37382;45.192;9.790;2022-12-29T03:45:54;101935.00;;;8.61;100.00
51299;BME280;37382;45.192;9.790;2022-12-29T03:48:22;101936.44;;;8.37;100.00
51299;BME280;37382;45.192;9.790;2022-12-29T03:50:51;101935.06;;;8.33;100.00
51299;BME280;37382;45.192;9.790;2022-12-29T03:53:19;101931.03;;;8.55;100.00
51299;BME280;37382;45.192;9.790;2022-12-29T03:55:46;101928.19;;;8.57;100.00
51299;BME280;37382;45.192;9.790;2022-12-29T03:58:14;101929.03;;;8.57;100.00
51299;BME280;37382;45.192;9.790;2022-12-29T04:01:00;101924.22;;;8.51;100.00
51299;BME280;37382;45.192;9.790;2022-12-29T04:03:31;101917.69;;;8.80;100.00
51299;BME280;37382;45.192;9.790;2022-12-29T04:05:58;101921.84;;;8.92;100.00
51299;BME280;37382;45.192;9.790;2022-12-29T04:08:27;101933.22;;;8.51;100.00
51299;BME280;37382;45.192;9.790;2022-12-29T04:10:55;101926.38;;;8.83;100.00
51299;BME280;37382;45.192;9.790;2022-12-29T04:13:23;101919.09;;;8.84;100.00
51299;BME280;37382;45.192;9.790;2022-12-29T04:15:51;101921.59;;;8.77;100.00
51299;BME280;37382;45.192;9.790;2022-12-29T04:18:19;101935.13;;;8.41;100.00
51299;BME280;37382;45.192;9.790;2022-12-29T04:20:46;101928.19;;;8.75;100.00
51299;BME280;37382;45.192;9.790;2022-12-29T04:23:38;101929.00;;;8.75;100.00
51299;BME280;37382;45.192;9.790;2022-12-29T04:26:08;101921.84;;;8.92;100.00
51299;BME280;37382;45.192;9.790;2022-12-29T04:28:50;101913.13;;;8.80;100.00
51299;BME280;37382;45.192;9.790;2022-12-29T04:31:38;101912.66;;;8.85;100.00
51299;BME280;37382;45.192;9.790;2022-12-29T04:34:06;101926.88;;;8.61;100.00
51299;BME280;37382;45.192;9.790;2022-12-29T04:36:34;101932.19;;;8.70;100.00
51299;BME280;37382;45.192;9.790;2022-12-29T04:39:02;101931.03;;;8.73;100.00
51299;BME280;37382;45.192;9.790;2022-12-29T04:41:33;101937.63;;;8.88;100.00
51299;BME280;37382;45.192;9.790;2022-12-29T04:44:01;101932.81;;;8.46;100.00
51299;BME280;37382;45.192;9.790;2022-12-29T04:46:41;101936.72;;;8.44;100.00
51299;BME280;37382;45.192;9.790;2022-12-29T04:49:29;101935.84;;;8.79;100.00
51299;BME280;37382;45.192;9.790;2022-12-29T04:52:10;101928.34;;;8.73;100.00
51299;BME280;37382;45.192;9.790;2022-12-29T04:54:37;101925.78;;;8.71;100.00
51299;BME280;37382;45.192;9.790;2022-12-29T04:57:11;101922.34;;;8.87;100.00
51299;BME280;37382;45.192;9.790;2022-12-29T04:59:39;101930.41;;;8.97;100.00
51299;BME280;37382;45.192;9.790;2022-12-29T05:02:08;101937.88;;;8.77;100.00
51299;BME280;37382;45.192;9.790;2022-12-29T05:04:36;101919.78;;;8.86;100.00
51299;BME280;37382;45.192;9.790;2022-12-29T05:07:03;101916.41;;;9.10;100.00
51299;BME280;37382;45.192;9.790;2022-12-29T05:09:31;101927.69;;;8.97;100.00
51299;BME280;37382;45.192;9.790;2022-12-29T05:12:00;101935.91;;;8.87;100.00
51299;BME280;37382;45.192;9.790;2022-12-29T05:14:30;101932.75;;;8.74;100.00
51299;BME280;37382;45.192;9.790;2022-12-29T05:16:59;101925.13;;;8.42;100.00
51299;BME280;37382;45.192;9.790;2022-12-29T05:19:27;101937.47;;;8.54;100.00
51299;BME280;37382;45.192;9.790;2022-12-29T05:21:55;101931.41;;;8.42;100.00
51299;BME280;37382;45.192;9.790;2022-12-29T05:24:22;101929.00;;;8.21;100.00
51299;BME280;37382;45.192;9.790;2022-12-29T05:26:53;101937.16;;;8.39;100.00
51299;BME280;37382;45.192;9.790;2022-12-29T05:29:37;101933.41;;;8.40;100.00
51299;BME280;37382;45.192;9.790;2022-12-29T05:32:05;101928.50;;;8.53;100.00
51299;BME280;37382;45.192;9.790;2022-12-29T05:34:33;101926.69;;;8.80;100.00
51299;BME280;37382;45.192;9.790;2022-12-29T05:37:01;101925.97;;;8.96;100.00
51299;BME280;37382;45.192;9.790;2022-12-29T05:39:29;101916.28;;;8.94;100.00
51299;BME280;37382;45.192;9.790;2022-12-29T05:42:00;101916.47;;;9.18;100.00
51299;BME280;37382;45.192;9.790;2022-12-29T05:44:44;101918.38;;;9.26;100.00
51299;BME280;37382;45.192;9.790;2022-12-29T05:47:22;101924.84;;;9.33;100.00
51299;BME280;37382;45.192;9.790;2022-12-29T05:50:17;101925.16;;;9.30;100.00
51299;BME280;37382;45.192;9.790;2022-12-29T05:53:08;101929.34;;;9.42;100.00
51299;BME280;37382;45.192;9.790;2022-12-29T05:55:37;101935.94;;;9.40;100.00
51299;BME280;37382;45.192;9.790;2022-12-29T05:58:12;101935.56;;;9.35;100.00
51299;BME280;37382;45.192;9.790;2022-12-29T06:00:40;101936.63;;;9.42;100.00
51299;BME280;37382;45.192;9.790;2022-12-29T06:03:10;101940.72;;;9.46;100.00
51299;BME280;37382;45.192;9.790;2022-12-29T06:05:38;101932.69;;;9.36;100.00
51299;BME280;37382;45.192;9.790;2022-12-29T06:08:06;101930.72;;;9.47;100.00
51299;BME280;37382;45.192;9.790;2022-12-29T06:10:34;101927.22;;;9.28;100.00
51299;BME280;37382;45.192;9.790;2022-12-29T06:13:05;101929.44;;;9.33;100.00
51299;BME280;37382;45.192;9.790;2022-12-29T06:15:36;101935.31;;;9.46;100.00
51299;BME280;37382;45.192;9.790;2022-12-29T06:18:06;101936.78;;;9.40;100.00
51299;BME280;37382;45.192;9.790;2022-12-29T06:20:34;101932.34;;;9.39;100.00
51299;BME280;37382;45.192;9.790;2022-12-29T06:23:04;101927.09;;;9.38;100.00
51299;BME280;37382;45.192;9.790;2022-12-29T06:25:32;101929.03;;;9.46;100.00
51299;BME280;37382;45.192;9.790;2022-12-29T06:28:02;101932.63;;;9.54;100.00
51299;BME280;37382;45.192;9.790;2022-12-29T06:30:31;101919.16;;;9.44;100.00
51299;BME280;37382;45.192;9.790;2022-12-29T06:33:00;101922.41;;;9.48;100.00
51299;BME280;37382;45.192;9.790;2022-12-29T06:35:28;101924.63;;;9.53;100.00
51299;BME280;37382;45.192;9.790;2022-12-29T06:37:56;101914.41;;;9.47;100.00
51299;BME280;37382;45.192;9.790;2022-12-29T06:40:23;101917.09;;;9.38;100.00
51299;BME280;37382;45.192;9.790;2022-12-29T06:43:13;101920.88;;;9.46;100.00
51299;BME280;37382;45.192;9.790;2022-12-29T06:45:59;101916.31;;;9.54;100.00
51299;BME280;37382;45.192;9.790;2022-12-29T06:48:27;101918.41;;;9.34;100.00
51299;BME280;37382;45.192;9.790;2022-12-29T06:50:54;101916.81;;;9.50;100.00
51299;BME280;37382;45.192;9.790;2022-12-29T06:53:22;101921.09;;;9.60;100.00
51299;BME280;37382;45.192;9.790;2022-12-29T06:55:49;101923.00;;;9.34;100.00
51299;BME280;37382;45.192;9.790;2022-12-29T06:58:17;101920.88;;;9.46;100.00
51299;BME280;37382;45.192;9.790;2022-12-29T07:00:45;101910.94;;;9.36;100.00
51299;BME280;37382;45.192;9.790;2022-12-29T07:03:12;101921.09;;;9.26;100.00
51299;BME280;37382;45.192;9.790;2022-12-29T07:05:40;101928.91;;;9.55;100.00
51299;BME280;37382;45.192;9.790;2022-12-29T07:08:07;101930.38;;;9.50;100.00
51299;BME280;37382;45.192;9.790;2022-12-29T07:10:35;101923.47;;;9.03;100.00
51299;BME280;37382;45.192;9.790;2022-12-29T07:13:04;101935.19;;;9.03;100.00
51299;BME280;37382;45.192;9.790;2022-12-29T07:15:31;101933.22;;;9.14;100.00
51299;BME280;37382;45.192;9.790;2022-12-29T07:17:59;101933.00;;;9.07;100.00
51299;BME280;37382;45.192;9.790;2022-12-29T07:20:26;101943.66;;;8.82;100.00
51299;BME280;37382;45.192;9.790;2022-12-29T07:22:54;101945.81;;;8.97;100.00
51299;BME280;37382;45.192;9.790;2022-12-29T07:25:22;101960.63;;;9.02;100.00
51299;BME280;37382;45.192;9.790;2022-12-29T07:27:49;101949.94;;;9.27;100.00
51299;BME280;37382;45.192;9.790;2022-12-29T07:30:17;101947.44;;;9.34;100.00
51299;BME280;37382;45.192;9.790;2022-12-29T07:32:44;101951.59;;;9.20;100.00
51299;BME280;37382;45.192;9.790;2022-12-29T07:35:12;101952.41;;;9.38;100.00
51299;BME280;37382;45.192;9.790;2022-12-29T07:37:40;101955.00;;;9.48;100.00
51299;BME280;37382;45.192;9.790;2022-12-29T07:40:09;101954.53;;;9.26;100.00
51299;BME280;37382;45.192;9.790;2022-12-29T07:42:37;101950.81;;;8.83;100.00
51299;BME280;37382;45.192;9.790;2022-12-29T07:45:08;101948.25;;;8.82;100.00
51299;BME280;37382;45.192;9.790;2022-12-29T07:47:48;101952.97;;;9.24;100.00
51299;BME280;37382;45.192;9.790;2022-12-29T07:50:16;101959.19;;;9.16;100.00
51299;BME280;37382;45.192;9.790;2022-12-29T07:52:44;101962.03;;;8.88;100.00
51299;BME280;37382;45.192;9.790;2022-12-29T07:55:15;101965.03;;;9.21;100.00
51299;BME280;37382;45.192;9.790;2022-12-29T07:57:43;101969.69;;;9.37;100.00
51299;BME280;37382;45.192;9.790;2022-12-29T08:00:11;101965.44;;;9.35;100.00
51299;BME280;37382;45.192;9.790;2022-12-29T08:02:39;101969.06;;;9.17;100.00
51299;BME280;37382;45.192;9.790;2022-12-29T08:05:07;101970.69;;;9.10;100.00
51299;BME280;37382;45.192;9.790;2022-12-29T08:07:35;101968.13;;;9.08;100.00
51299;BME280;37382;45.192;9.790;2022-12-29T08:10:04;101970.69;;;9.10;100.00
51299;BME280;37382;45.192;9.790;2022-12-29T08:12:31;101975.56;;;9.24;100.00
51299;BME280;37382;45.192;9.790;2022-12-29T08:14:59;101976.88;;;9.20;100.00
51299;BME280;37382;45.192;9.790;2022-12-29T08:17:26;101974.38;;;9.27;100.00
51299;BME280;37382;45.192;9.790;2022-12-29T08:19:53;101971.09;;;9.41;100.00
51299;BME280;37382;45.192;9.790;2022-12-29T08:22:21;101980.94;;;9.42;100.00
51299;BME280;37382;45.192;9.790;2022-12-29T08:24:48;101973.47;;;9.44;100.00
51299;BME280;37382;45.192;9.790;2022-12-29T08:27:15;101974.00;;;9.48;100.00
51299;BME280;37382;45.192;9.790;2022-12-29T08:29:47;101981.00;;;9.51;100.00
51299;BME280;37382;45.192;9.790;2022-12-29T08:32:16;101979.84;;;9.53;100.00
51299;BME280;37382;45.192;9.790;2022-12-29T08:34:43;101984.28;;;9.63;100.00
51299;BME280;37382;45.192;9.790;2022-12-29T08:37:10;101980.06;;;9.16;100.00
51299;BME280;37382;45.192;9.790;2022-12-29T08:39:38;101991.25;;;8.77;100.00
51299;BME280;37382;45.192;9.790;2022-12-29T08:42:06;101982.03;;;9.32;100.00
51299;BME280;37382;45.192;9.790;2022-12-29T08:44:33;101972.47;;;9.46;100.00
51299;BME280;37382;45.192;9.790;2022-12-29T08:47:00;101991.50;;;8.83;100.00
51299;BME280;37382;45.192;9.790;2022-12-29T08:49:28;101995.91;;;9.02;100.00
51299;BME280;37382;45.192;9.790;2022-12-29T08:51:55;101984.13;;;9.38;100.00
51299;BME280;37382;45.192;9.790;2022-12-29T08:54:22;101984.28;;;9.36;100.00
51299;BME280;37382;45.192;9.790;2022-12-29T08:56:49;102001.63;;;9.17;100.00
51299;BME280;37382;45.192;9.790;2022-12-29T08:59:18;101994.28;;;9.36;100.00
51299;BME280;37382;45.192;9.790;2022-12-29T09:01:48;101999.72;;;9.10;100.00
51299;BME280;37382;45.192;9.790;2022-12-29T09:04:15;102000.47;;;9.20;100.00
51299;BME280;37382;45.192;9.790;2022-12-29T09:06:44;101999.09;;;9.42;100.00
51299;BME280;37382;45.192;9.790;2022-12-29T09:09:13;102006.34;;;9.59;100.00
51299;BME280;37382;45.192;9.790;2022-12-29T09:11:41;102009.53;;;9.81;100.00
51299;BME280;37382;45.192;9.790;2022-12-29T09:14:09;102001.25;;;9.91;100.00
51299;BME280;37382;45.192;9.790;2022-12-29T09:16:37;102002.22;;;9.82;100.00
51299;BME280;37382;45.192;9.790;2022-12-29T09:19:04;101995.72;;;10.09;100.00
51299;BME280;37382;45.192;9.790;2022-12-29T09:21:32;101985.19;;;10.14;100.00
51299;BME280;37382;45.192;9.790;2022-12-29T09:24:00;101984.34;;;10.05;100.00
51299;BME280;37382;45.192;9.790;2022-12-29T09:26:27;101981.22;;;10.00;100.00
51299;BME280;37382;45.192;9.790;2022-12-29T09:28:55;101982.34;;;10.24;100.00
51299;BME280;37382;45.192;9.790;2022-12-29T09:31:23;101979.59;;;10.15;100.00
51299;BME280;37382;45.192;9.790;2022-12-29T09:33:52;101974.97;;;10.08;100.00
51299;BME280;37382;45.192;9.790;2022-12-29T09:36:19;101979.34;;;9.92;100.00
51299;BME280;37382;45.192;9.790;2022-12-29T09:38:46;101988.63;;;9.82;100.00
51299;BME280;37382;45.192;9.790;2022-12-29T09:41:26;101989.88;;;9.95;100.00
51299;BME280;37382;45.192;9.790;2022-12-29T09:46:28;101989.34;;;9.57;100.00
51299;BME280;37382;45.192;9.790;2022-12-29T09:51:50;101978.53;;;9.39;100.00
51299;BME280;37382;45.192;9.790;2022-12-29T09:55:04;101992.66;;;9.17;100.00
51299;BME280;37382;45.192;9.790;2022-12-29T09:57:52;101994.66;;;9.15;100.00
51299;BME280;37382;45.192;9.790;2022-12-29T10:00:23;101987.75;;;9.20;100.00
51299;BME280;37382;45.192;9.790;2022-12-29T10:03:02;101987.69;;;9.38;100.00
51299;BME280;37382;45.192;9.790;2022-12-29T10:05:53;101975.44;;;9.60;100.00
51299;BME280;37382;45.192;9.790;2022-12-29T10:13:58;101970.28;;;9.23;100.00
51299;BME280;37382;45.192;9.790;2022-12-29T10:16:43;101976.31;;;9.61;100.00
51299;BME280;37382;45.192;9.790;2022-12-29T10:19:33;101967.13;;;9.62;100.00
51299;BME280;37382;45.192;9.790;2022-12-29T10:22:21;101964.81;;;9.41;100.00
51299;BME280;37382;45.192;9.790;2022-12-29T10:24:55;101968.31;;;9.33;100.00
51299;BME280;37382;45.192;9.790;2022-12-29T10:27:31;101966.34;;;9.17;100.00
51299;BME280;37382;45.192;9.790;2022-12-29T10:30:02;101960.22;;;9.76;100.00
51299;BME280;37382;45.192;9.790;2022-12-29T10:32:37;101950.50;;;10.08;100.00
51299;BME280;37382;45.192;9.790;2022-12-29T10:35:16;101953.69;;;9.60;100.00
51299;BME280;37382;45.192;9.790;2022-12-29T10:38:01;101943.09;;;9.75;100.00
51299;BME280;37382;45.192;9.790;2022-12-29T10:40:42;101927.28;;;10.30;100.00
51299;BME280;37382;45.192;9.790;2022-12-29T10:43:24;101916.78;;;11.26;100.00
51299;BME280;37382;45.192;9.790;2022-12-29T10:45:53;101926.19;;;10.82;100.00
51299;BME280;37382;45.192;9.790;2022-12-29T10:48:28;101923.94;;;10.44;100.00
51299;BME280;37382;45.192;9.790;2022-12-29T10:51:01;101924.81;;;10.70;100.00
51299;BME280;37382;45.192;9.790;2022-12-29T10:53:40;101922.25;;;10.43;100.00
51299;BME280;37382;45.192;9.790;2022-12-29T10:56:41;101920.59;;;10.08;100.00
51299;BME280;37382;45.192;9.790;2022-12-29T10:59:23;101917.50;;;10.62;100.00
51299;BME280;37382;45.192;9.790;2022-12-29T11:05:03;101903.41;;;10.83;100.00
51299;BME280;37382;45.192;9.790;2022-12-29T11:07:35;101903.03;;;10.94;100.00
51299;BME280;37382;45.192;9.790;2022-12-29T11:10:30;101894.63;;;10.13;100.00
51299;BME280;37382;45.192;9.790;2022-12-29T11:13:04;101910.72;;;9.90;100.00
51299;BME280;37382;45.192;9.790;2022-12-29T11:15:45;101921.66;;;9.72;100.00
51299;BME280;37382;45.192;9.790;2022-12-29T11:18:25;101922.16;;;9.68;100.00
51299;BME280;37382;45.192;9.790;2022-12-29T11:20:55;101920.13;;;9.70;100.00
51299;BME280;37382;45.192;9.790;2022-12-29T11:23:33;101920.97;;;9.36;100.00
51299;BME280;37382;45.192;9.790;2022-12-29T11:28:39;101908.56;;;9.33;100.00
51299;BME280;37382;45.192;9.790;2022-12-29T11:31:08;101904.66;;;9.28;100.00
51299;BME280;37382;45.192;9.790;2022-12-29T11:33:38;101919.75;;;9.30;100.00
51299;BME280;37382;45.192;9.790;2022-12-29T11:36:12;101920.78;;;9.29;100.00
51299;BME280;37382;45.192;9.790;2022-12-29T11:38:45;101921.91;;;9.18;100.00
51299;BME280;37382;45.192;9.790;2022-12-29T11:41:22;101926.25;;;9.11;100.00
51299;BME280;37382;45.192;9.790;2022-12-29T11:43:51;101909.69;;;9.22;100.00
51299;BME280;37382;45.192;9.790;2022-12-29T11:46:26;101912.78;;;9.28;100.00
51299;BME280;37382;45.192;9.790;2022-12-29T11:48:56;101914.88;;;9.34;100.00
51299;BME280;37382;45.192;9.790;2022-12-29T11:51:33;101906.75;;;9.42;100.00
51299;BME280;37382;45.192;9.790;2022-12-29T11:54:04;101910.53;;;9.49;100.00
51299;BME280;37382;45.192;9.790;2022-12-29T11:56:35;101920.78;;;9.64;100.00
51299;BME280;37382;45.192;9.790;2022-12-29T12:02:45;101921.09;;;9.60;100.00
51299;BME280;37382;45.192;9.790;2022-12-29T12:05:24;101911.50;;;9.40;100.00
51299;BME280;37382;45.192;9.790;2022-12-29T12:08:17;101902.59;;;9.30;100.00
51299;BME280;37382;45.192;9.790;2022-12-29T12:11:15;101893.56;;;9.21;100.00
51299;BME280;37382;45.192;9.790;2022-12-29T12:13:45;101885.34;;;9.04;100.00
51299;BME280;37382;45.192;9.790;2022-12-29T12:16:52;101874.88;;;9.18;100.00
51299;BME280;37382;45.192;9.790;2022-12-29T12:19:42;101882.53;;;9.22;100.00
51299;BME280;37382;45.192;9.790;2022-12-29T12:22:27;101879.41;;;9.09;100.00
51299;BME280;37382;45.192;9.790;2022-12-29T12:25:25;101886.00;;;9.06;100.00
51299;BME280;37382;45.192;9.790;2022-12-29T12:28:01;101882.00;;;9.19;100.00
51299;BME280;37382;45.192;9.790;2022-12-29T12:30:43;101872.47;;;9.15;100.00
51299;BME280;37382;45.192;9.790;2022-12-29T12:33:28;101887.81;;;8.98;100.00
51299;BME280;37382;45.192;9.790;2022-12-29T12:38:54;101882.78;;;9.37;100.00
51299;BME280;37382;45.192;9.790;2022-12-29T12:55:33;101851.47;;;8.90;100.00
51299;BME280;37382;45.192;9.790;2022-12-29T13:00:48;101832.09;;;9.12;100.00
51299;BME280;37382;45.192;9.790;2022-12-29T13:03:47;101816.34;;;9.15;100.00
51299;BME280;37382;45.192;9.790;2022-12-29T13:15:01;101804.59;;;10.41;100.00
51299;BME280;37382;45.192;9.790;2022-12-29T13:18:00;101814.44;;;10.50;100.00
51299;BME280;37382;45.192;9.790;2022-12-29T13:23:32;101822.63;;;9.58;100.00
51299;BME280;37382;45.192;9.790;2022-12-29T13:26:15;101813.31;;;9.18;100.00
51299;BME280;37382;45.192;9.790;2022-12-29T13:31:43;101809.81;;;10.02;100.00
51299;BME280;37382;45.192;9.790;2022-12-29T13:34:35;101799.09;;;10.00;100.00
51299;BME280;37382;45.192;9.790;2022-12-29T13:37:14;101809.78;;;9.34;100.00
51299;BME280;37382;45.192;9.790;2022-12-29T13:40:11;101803.66;;;9.83;100.00
51299;BME280;37382;45.192;9.790;2022-12-29T13:42:40;101800.97;;;10.08;100.00
51299;BME280;37382;45.192;9.790;2022-12-29T13:45:20;101797.06;;;9.86;100.00
51299;BME280;37382;45.192;9.790;2022-12-29T13:47:54;101786.38;;;10.09;100.00
51299;BME280;37382;45.192;9.790;2022-12-29T13:50:25;101771.09;;;10.41;100.00
51299;BME280;37382;45.192;9.790;2022-12-29T13:53:03;101770.91;;;10.50;100.00
51299;BME280;37382;45.192;9.790;2022-12-29T13:55:41;101793.16;;;9.88;100.00
51299;BME280;37382;45.192;9.790;2022-12-29T14:03:28;101794.19;;;10.04;100.00
51299;BME280;37382;45.192;9.790;2022-12-29T14:06:26;101798.34;;;9.65;100.00
51299;BME280;37382;45.192;9.790;2022-12-29T14:08:57;101796.38;;;10.00;100.00
51299;BME280;37382;45.192;9.790;2022-12-29T14:11:32;101790.47;;;10.13;100.00
51299;BME280;37382;45.192;9.790;2022-12-29T14:14:22;101784.50;;;10.09;100.00
51299;BME280;37382;45.192;9.790;2022-12-29T14:16:51;101793.16;;;9.88;100.00
51299;BME280;37382;45.192;9.790;2022-12-29T14:19:30;101802.81;;;9.91;100.00
51299;BME280;37382;45.192;9.790;2022-12-29T14:22:01;101795.84;;;9.80;100.00
51299;BME280;37382;45.192;9.790;2022-12-29T14:34:57;101787.94;;;9.44;100.00
51299;BME280;37382;45.192;9.790;2022-12-29T14:37:32;101789.03;;;9.76;100.00
51299;BME280;37382;45.192;9.790;2022-12-29T14:42:47;101775.81;;;10.14;100.00
51299;BME280;37382;45.192;9.790;2022-12-29T14:47:46;101773.00;;;9.48;100.00
51299;BME280;37382;45.192;9.790;2022-12-29T14:52:54;101786.34;;;9.33;100.00
51299;BME280;37382;45.192;9.790;2022-12-29T14:58:21;101789.28;;;9.40;100.00
51299;BME280;37382;45.192;9.790;2022-12-29T15:00:49;101780.75;;;9.26;100.00
51299;BME280;37382;45.192;9.790;2022-12-29T15:03:21;101787.81;;;9.11;100.00
51299;BME280;37382;45.192;9.790;2022-12-29T15:05:55;101785.59;;;9.15;100.00
51299;BME280;37382;45.192;9.790;2022-12-29T15:08:26;101780.72;;;9.18;100.00
51299;BME280;37382;45.192;9.790;2022-12-29T15:11:18;101774.31;;;9.28;100.00
51299;BME280;37382;45.192;9.790;2022-12-29T15:13:47;101771.25;;;9.31;100.00
51299;BME280;37382;45.192;9.790;2022-12-29T15:18:53;101766.72;;;9.48;100.00
51299;BME280;37382;45.192;9.790;2022-12-29T15:21:25;101762.19;;;9.65;100.00
51299;BME280;37382;45.192;9.790;2022-12-29T15:23:53;101762.69;;;9.68;100.00